Time;durP1;ratioP1;P1;durP2;ratioP2;P2;SDS_P1;SDS_P2;PMS_P1;PMS_P2;Temp;Humidity;BMP_temperature;BMP_pressure;BME280_temperature;BME280_humidity;BME280_pressure;Samples;Min_cycle;Max_cycle;Signal;HPM_P1;HPM_P2
2024/03/29 00:00:55;;;;;;;3.38;0.90;;;;;;;4.44;100.00;91352.38;2101797;28;20099;-86
2024/03/29 00:01:56;;;;;;;0.68;0.68;;;;;;;4.57;100.00;91349.75;2093844;28;20692;-84
2024/03/29 00:02:59;;;;;;;1.05;0.80;;;;;;;4.55;100.00;91344.88;2085357;28;20052;-84
2024/03/29 00:04:00;;;;;;;1.00;0.90;;;;;;;4.44;100.00;91341.78;2102623;28;20175;-85
2024/03/29 00:05:03;;;;;;;0.82;0.77;;;;;;;4.35;100.00;91347.69;2097860;28;20467;-82
2024/03/29 00:06:04;;;;;;;1.25;1.05;;;;;;;4.27;100.00;91349.78;2097710;28;20549;-84
2024/03/29 00:07:05;;;;;;;1.40;0.95;;;;;;;4.24;100.00;91344.56;2086821;28;20029;-85
2024/03/29 00:08:06;;;;;;;1.27;0.88;;;;;;;4.27;100.00;91339.19;2089912;28;20017;-84
2024/03/29 00:09:07;;;;;;;1.25;0.85;;;;;;;4.40;100.00;91339.22;2090328;28;20162;-83
2024/03/29 00:10:09;;;;;;;1.42;0.80;;;;;;;4.42;100.00;91336.16;2089703;28;20024;-84
2024/03/29 00:11:10;;;;;;;2.15;0.80;;;;;;;4.38;100.00;91344.19;2089905;28;20063;-83
2024/03/29 00:12:11;;;;;;;1.33;0.93;;;;;;;4.40;100.00;91344.53;2081785;28;20064;-83
2024/03/29 00:13:11;;;;;;;1.85;1.25;;;;;;;4.52;100.00;91345.69;2088404;28;20048;-84
2024/03/29 00:14:12;;;;;;;0.90;0.70;;;;;;;4.53;100.00;91336.63;2090333;28;20021;-85
2024/03/29 00:15:13;;;;;;;0.75;0.70;;;;;;;4.37;100.00;91350.66;2092089;28;20028;-84
2024/03/29 00:16:14;;;;;;;2.13;0.82;;;;;;;4.23;100.00;91351.03;2100459;28;20166;-85
2024/03/29 00:17:15;;;;;;;1.20;0.82;;;;;;;4.35;100.00;91341.66;2098817;28;20386;-87
2024/03/29 00:20:13;;;;;;;2.80;0.80;;;;;;;4.20;100.00;91322.78;2112682;28;20020;-85
2024/03/29 00:23:18;;;;;;;1.02;0.70;;;;;;;4.48;99.38;91315.97;2110596;28;20496;-84
2024/03/29 00:24:19;;;;;;;1.58;0.90;;;;;;;4.53;98.99;91313.53;2099030;28;20060;-84
2024/03/29 00:25:20;;;;;;;1.52;0.90;;;;;;;4.46;99.73;91313.72;2090089;28;20086;-86
2024/03/29 00:26:21;;;;;;;2.00;0.80;;;;;;;4.39;100.00;91302.59;2082624;28;20115;-83
2024/03/29 00:27:25;;;;;;;1.85;0.77;;;;;;;4.33;100.00;91297.09;2098281;28;20401;-85
2024/03/29 00:28:26;;;;;;;1.55;0.80;;;;;;;4.38;100.00;91298.47;2107186;28;20061;-83
2024/03/29 00:29:27;;;;;;;1.20;1.05;;;;;;;4.40;100.00;91291.63;2093912;28;20055;-83
2024/03/29 00:30:28;;;;;;;2.25;0.88;;;;;;;4.32;100.00;91292.25;2089965;28;20095;-84
2024/03/29 00:31:29;;;;;;;1.20;0.90;;;;;;;4.31;100.00;91280.94;2090099;28;20032;-83
2024/03/29 00:32:30;;;;;;;1.42;0.80;;;;;;;4.29;100.00;91277.94;2090080;28;20052;-84
2024/03/29 00:37:25;;;;;;;3.00;0.80;;;;;;;4.10;100.00;91265.66;2105704;28;20027;-83
2024/03/29 00:38:26;;;;;;;1.00;0.90;;;;;;;3.96;100.00;91267.53;2097960;28;20575;-84
2024/03/29 00:39:27;;;;;;;1.50;0.77;;;;;;;3.83;100.00;91252.78;2093051;28;20024;-85
2024/03/29 00:43:11;;;;;;;0.95;0.60;;;;;;;3.98;100.00;91243.31;2108958;28;20035;-85
2024/03/29 00:46:09;;;;;;;1.17;0.63;;;;;;;3.95;100.00;91231.69;2106706;28;20115;-83
2024/03/29 00:47:10;;;;;;;0.65;0.65;;;;;;;3.84;100.00;91239.16;2090738;28;20024;-83
2024/03/29 00:48:15;;;;;;;0.90;0.75;;;;;;;3.64;100.00;91247.22;2090014;28;20032;-85
2024/03/29 00:49:16;;;;;;;1.13;0.90;;;;;;;3.78;100.00;91246.13;2090315;28;20025;-86
2024/03/29 00:50:17;;;;;;;2.17;0.95;;;;;;;3.83;100.00;91253.53;2086200;28;20141;-84
2024/03/29 00:51:18;;;;;;;1.17;0.73;;;;;;;3.90;100.00;91250.69;2088295;28;20040;-85
2024/03/29 00:52:18;;;;;;;0.82;0.70;;;;;;;3.81;100.00;91258.47;2081668;28;20022;-84
2024/03/29 00:53:19;;;;;;;1.83;0.88;;;;;;;3.87;100.00;91256.81;2089981;28;20028;-85
2024/03/29 00:54:20;;;;;;;1.02;0.93;;;;;;;3.94;100.00;91259.25;2097140;28;20028;-83
2024/03/29 00:55:21;;;;;;;0.80;0.70;;;;;;;3.94;100.00;91256.63;2086115;28;20025;-85
2024/03/29 00:56:22;;;;;;;1.05;0.73;;;;;;;3.99;100.00;91258.72;2089179;28;20029;-87
2024/03/29 00:57:23;;;;;;;1.75;0.75;;;;;;;3.92;100.00;91253.66;2089421;28;20037;-85
2024/03/29 00:58:24;;;;;;;1.17;0.70;;;;;;;3.70;100.00;91245.56;2089799;28;20021;-86
2024/03/29 00:59:25;;;;;;;2.03;0.88;;;;;;;3.77;100.00;91257.81;2105917;28;20461;-85
2024/03/29 01:00:26;;;;;;;1.00;0.60;;;;;;;3.84;100.00;91247.09;2093958;28;20017;-83
2024/03/29 01:01:27;;;;;;;0.63;0.63;;;;;;;3.75;100.00;91244.31;2098166;28;20031;-86
2024/03/29 01:02:28;;;;;;;1.50;0.90;;;;;;;3.96;100.00;91250.94;2097740;28;20023;-85
2024/03/29 01:03:33;;;;;;;0.85;0.82;;;;;;;3.51;100.00;91252.47;2074077;28;20038;-85
2024/03/29 01:04:43;;;;;;;1.65;0.90;;;;;;;3.66;100.00;91250.19;2089760;28;20033;-85
2024/03/29 01:05:44;;;;;;;0.80;0.80;;;;;;;3.57;100.00;91254.59;2086273;28;20048;-84
2024/03/29 01:07:17;;;;;;;1.20;0.82;;;;;;;3.98;100.00;91256.53;2095562;28;20060;-84
2024/03/29 01:08:18;;;;;;;1.10;0.80;;;;;;;4.04;100.00;91260.16;2102107;28;20090;-84
2024/03/29 01:09:19;;;;;;;0.80;0.80;;;;;;;3.91;100.00;91267.31;2088967;28;20033;-85
2024/03/29 01:10:23;;;;;;;1.45;0.80;;;;;;;3.99;100.00;91269.31;2090685;28;20198;-83
2024/03/29 01:11:24;;;;;;;0.57;0.57;;;;;;;4.02;100.00;91268.47;2098186;28;20017;-83
2024/03/29 01:14:23;;;;;;;0.60;0.60;;;;;;;3.93;100.00;91265.72;2105827;28;20023;-85
2024/03/29 01:15:24;;;;;;;0.82;0.68;;;;;;;4.10;100.00;91268.28;2102402;28;20389;-83
2024/03/29 01:17:06;;;;;;;1.48;0.77;;;;;;;4.16;100.00;91259.41;2095478;28;20476;-84
2024/03/29 01:19:05;;;;;;;0.70;0.70;;;;;;;4.42;100.00;91278.72;2109152;28;20028;-85
2024/03/29 01:24:30;;;;;;;2.53;0.70;;;;;;;4.38;100.00;91266.75;2106971;28;20016;-84
2024/03/29 01:27:54;;;;;;;1.38;0.70;;;;;;;4.31;100.00;91280.94;2114083;28;20028;-84
2024/03/29 01:32:57;;;;;;;0.80;0.80;;;;;;;4.74;100.00;91253.22;2106268;28;20028;-85
2024/03/29 01:34:03;;;;;;;1.13;0.73;;;;;;;4.50;100.00;91256.19;2089432;28;20033;-86
2024/03/29 01:35:04;;;;;;;0.82;0.57;;;;;;;4.67;100.00;91253.44;2076493;28;20045;-84
2024/03/29 01:36:06;;;;;;;0.80;0.68;;;;;;;4.53;100.00;91250.06;2083977;28;20017;-85
2024/03/29 01:37:10;;;;;;;0.60;0.60;;;;;;;4.54;100.00;91245.50;2092537;28;20029;-87
2024/03/29 01:38:12;;;;;;;0.57;0.57;;;;;;;4.51;100.00;91239.13;2105557;28;20130;-84
2024/03/29 01:49:24;;;;;;;0.77;0.77;;;;;;;4.70;100.00;91252.59;2098241;28;20024;-84
2024/03/29 01:54:38;;;;;;;0.65;0.50;;;;;;;5.01;100.00;91247.50;2105269;28;20036;-84
2024/03/29 01:57:39;;;;;;;0.50;0.50;;;;;;;4.86;100.00;91249.09;2098162;28;20036;-82
2024/03/29 02:02:47;;;;;;;0.75;0.60;;;;;;;5.15;100.00;91249.69;2105829;28;20028;-87
2024/03/29 02:06:06;;;;;;;1.42;0.85;;;;;;;5.15;100.00;91244.38;2104353;28;20155;-86
2024/03/29 02:07:07;;;;;;;0.60;0.60;;;;;;;4.71;100.00;91232.91;2093455;28;20028;-83
2024/03/29 02:10:12;;;;;;;0.60;0.60;;;;;;;5.20;100.00;91224.56;2111260;28;20476;-84
2024/03/29 02:11:16;;;;;;;0.98;0.70;;;;;;;4.85;100.00;91232.47;2096940;28;20146;-84
2024/03/29 02:14:45;;;;;;;0.65;0.65;;;;;;;5.12;100.00;91228.59;2113343;28;20020;-84
2024/03/29 02:15:45;;;;;;;1.73;0.60;;;;;;;5.03;100.00;91219.41;2093079;28;20692;-83
2024/03/29 02:17:37;;;;;;;0.60;0.60;;;;;;;4.85;100.00;91221.88;2087611;28;20033;-86
2024/03/29 02:18:59;;;;;;;0.52;0.52;;;;;;;4.73;100.00;91228.66;2097793;28;20040;-85
2024/03/29 02:20:00;;;;;;;0.85;0.68;;;;;;;4.81;100.00;91234.47;2096006;28;20406;-84
2024/03/29 02:21:01;;;;;;;1.65;0.70;;;;;;;4.95;100.00;91228.00;2082268;28;20111;-83
2024/03/29 02:22:06;;;;;;;0.88;0.57;;;;;;;4.92;100.00;91231.50;2090718;28;20021;-85
2024/03/29 02:23:10;;;;;;;0.73;0.65;;;;;;;5.05;100.00;91232.97;2089852;28;20219;-86
2024/03/29 02:24:16;;;;;;;0.50;0.50;;;;;;;4.98;100.00;91227.16;2089996;28;20099;-85
2024/03/29 02:28:30;;;;;;;0.53;0.53;;;;;;;2.85;100.00;91214.09;4267312;27;20404;-81
2024/03/29 02:29:31;;;;;;;0.95;0.60;;;;;;;2.82;100.00;91227.41;2105160;28;20036;-84
2024/03/29 02:30:32;;;;;;;1.95;0.60;;;;;;;2.93;100.00;91218.06;2103753;28;20028;-83
2024/03/29 02:33:44;;;;;;;0.50;0.50;;;;;;;3.38;100.00;91214.72;2113060;28;20027;-83
2024/03/29 02:35:19;;;;;;;1.27;0.68;;;;;;;3.12;100.00;91218.41;2102765;28;20054;-83
2024/03/29 02:36:20;;;;;;;2.10;0.70;;;;;;;2.96;100.00;91224.41;2103463;28;20385;-82
2024/03/29 02:37:21;;;;;;;0.68;0.68;;;;;;;2.82;100.00;91243.22;2096571;28;20058;-83
2024/03/29 02:38:22;;;;;;;0.80;0.50;;;;;;;2.69;100.00;91249.16;2103729;28;20074;-83
2024/03/29 02:39:23;;;;;;;0.60;0.60;;;;;;;2.88;100.00;91241.56;2101266;28;20111;-84
2024/03/29 02:44:18;;;;;;;0.85;0.50;;;;;;;3.31;100.00;91241.28;2108102;28;20060;-83
2024/03/29 02:45:19;;;;;;;0.85;0.55;;;;;;;3.20;100.00;91243.44;2109510;28;20053;-83
2024/03/29 02:46:20;;;;;;;0.82;0.63;;;;;;;3.12;100.00;91255.34;2087728;28;20493;-82
2024/03/29 02:47:21;;;;;;;1.02;0.55;;;;;;;3.00;100.00;91251.47;2096366;28;20025;-81
2024/03/29 02:48:21;;;;;;;1.48;0.60;;;;;;;3.07;100.00;91261.09;2106879;28;20052;-83
2024/03/29 02:49:22;;;;;;;0.73;0.70;;;;;;;2.90;100.00;91263.75;2105683;28;20028;-83
2024/03/29 02:50:23;;;;;;;0.73;0.60;;;;;;;3.05;100.00;91271.34;2087710;28;20470;-81
2024/03/29 02:51:32;;;;;;;0.75;0.60;;;;;;;3.10;100.00;91274.22;2095706;28;20108;-82
2024/03/29 02:54:30;;;;;;;0.82;0.70;;;;;;;3.23;100.00;91275.03;2108781;28;20461;-80
2024/03/29 02:55:31;;;;;;;0.60;0.60;;;;;;;3.32;100.00;91273.72;2108606;28;20056;-82
2024/03/29 02:56:37;;;;;;;0.70;0.70;;;;;;;3.35;100.00;91278.16;2103282;28;20432;-80
2024/03/29 02:58:03;;;;;;;0.70;0.70;;;;;;;3.38;100.00;91280.72;2080853;28;20471;-83
2024/03/29 02:59:22;;;;;;;0.60;0.60;;;;;;;3.36;100.00;91279.66;2099808;28;20027;-81
2024/03/29 03:00:26;;;;;;;0.50;0.50;;;;;;;3.35;100.00;91283.44;2090452;28;20640;-82
2024/03/29 03:01:30;;;;;;;0.90;0.60;;;;;;;3.55;100.00;91284.06;2087978;28;20036;-81
2024/03/29 03:02:31;;;;;;;0.77;0.63;;;;;;;3.58;100.00;91282.50;2111632;28;20031;-81
2024/03/29 03:03:32;;;;;;;0.60;0.60;;;;;;;3.63;100.00;91274.78;2105022;28;20080;-83
2024/03/29 03:04:33;;;;;;;0.50;0.50;;;;;;;3.56;100.00;91266.31;2111300;28;20434;-81
2024/03/29 03:05:34;;;;;;;0.50;0.50;;;;;;;3.55;100.00;91257.66;2109204;28;20028;-81
2024/03/29 03:06:35;;;;;;;0.75;0.60;;;;;;;3.67;100.00;91249.03;2095642;28;20075;-80
2024/03/29 03:11:40;;;;;;;1.60;0.55;;;;;;;3.84;100.00;91235.78;2104787;28;20103;-83
2024/03/29 03:12:40;;;;;;;3.13;0.60;;;;;;;3.88;100.00;91237.16;2095410;28;20024;-83
2024/03/29 03:13:43;;;;;;;0.50;0.50;;;;;;;3.85;100.00;91239.88;2087738;28;20284;-81
2024/03/29 03:17:22;;;;;;;1.17;0.65;;;;;;;3.87;100.00;91234.94;2104538;28;20102;-83
2024/03/29 03:22:17;;;;;;;0.60;0.60;;;;;;;4.14;100.00;91231.94;2109833;28;20036;-83
2024/03/29 03:23:55;;;;;;;0.70;0.68;;;;;;;4.17;100.00;91225.78;2104003;28;20024;-80
2024/03/29 03:24:56;;;;;;;0.63;0.45;;;;;;;4.31;100.00;91233.31;2096458;28;20051;-84
2024/03/29 03:26:03;;;;;;;1.08;0.50;;;;;;;4.22;100.00;91227.91;2091482;28;20436;-82
2024/03/29 03:27:04;;;;;;;0.55;0.55;;;;;;;4.26;100.00;91231.94;2096345;28;20127;-83
2024/03/29 03:28:05;;;;;;;0.50;0.50;;;;;;;4.32;100.00;91223.47;2103813;28;20143;-81
2024/03/29 03:29:07;;;;;;;1.90;0.60;;;;;;;4.48;100.00;91226.78;2090153;28;20021;-81
2024/03/29 03:30:09;;;;;;;0.57;0.50;;;;;;;4.44;100.00;91217.47;2093560;28;20120;-83
2024/03/29 03:31:10;;;;;;;0.60;0.60;;;;;;;4.47;100.00;91217.34;2104063;28;20074;-84
2024/03/29 03:32:11;;;;;;;0.60;0.60;;;;;;;4.45;100.00;91217.03;2097712;28;20066;-82
2024/03/29 03:33:12;;;;;;;1.08;0.50;;;;;;;4.39;100.00;91221.38;2096734;28;20021;-82
2024/03/29 03:34:13;;;;;;;0.57;0.52;;;;;;;4.38;100.00;91217.22;2100917;28;20066;-81
2024/03/29 03:35:14;;;;;;;1.80;0.60;;;;;;;4.38;100.00;91221.78;2107181;28;20019;-83
2024/03/29 03:36:15;;;;;;;0.60;0.60;;;;;;;4.36;100.00;91232.06;2098743;28;20021;-83
2024/03/29 03:37:16;;;;;;;0.77;0.57;;;;;;;4.20;100.00;91228.31;2101771;28;20370;-82
2024/03/29 03:38:16;;;;;;;1.30;0.60;;;;;;;4.10;100.00;91226.72;2096835;28;20040;-82
2024/03/29 03:39:17;;;;;;;0.68;0.68;;;;;;;4.16;100.00;91232.22;2094793;28;20466;-84
2024/03/29 03:40:19;;;;;;;0.52;0.50;;;;;;;4.07;100.00;91227.56;2098215;28;20028;-84
2024/03/29 03:41:20;;;;;;;0.50;0.50;;;;;;;4.03;100.00;91229.56;2087653;28;20020;-83
2024/03/29 03:42:21;;;;;;;0.50;0.50;;;;;;;4.12;100.00;91239.53;2090467;28;20033;-81
2024/03/29 03:43:22;;;;;;;0.50;0.50;;;;;;;4.12;100.00;91244.81;2089294;28;20036;-81
2024/03/29 03:44:24;;;;;;;1.10;0.52;;;;;;;4.09;100.00;91246.41;2090205;28;20025;-83
2024/03/29 03:45:25;;;;;;;0.60;0.60;;;;;;;4.02;100.00;91249.97;2081881;28;20121;-80
2024/03/29 03:46:26;;;;;;;0.70;0.70;;;;;;;4.12;100.00;91253.47;2087972;28;20539;-81
2024/03/29 03:47:27;;;;;;;1.48;0.60;;;;;;;4.18;100.00;91245.78;2092928;28;20127;-83
2024/03/29 03:48:31;;;;;;;0.50;0.50;;;;;;;4.26;100.00;91252.38;2092049;28;20502;-83
2024/03/29 03:49:39;;;;;;;0.75;0.75;;;;;;;4.38;100.00;91248.97;2094021;28;20032;-81
2024/03/29 03:50:41;;;;;;;0.50;0.50;;;;;;;4.37;100.00;91244.84;2094872;28;20032;-81
2024/03/29 03:51:42;;;;;;;1.75;0.60;;;;;;;4.43;100.00;91263.56;2090094;28;20030;-83
2024/03/29 03:52:44;;;;;;;0.90;0.55;;;;;;;4.43;100.00;91253.00;2087605;28;20120;-83
2024/03/29 03:53:45;;;;;;;0.60;0.50;;;;;;;4.39;100.00;91263.69;2084488;28;20374;-83
2024/03/29 03:54:46;;;;;;;1.80;0.63;;;;;;;4.24;100.00;91255.41;2095213;28;20056;-81
2024/03/29 03:55:47;;;;;;;0.50;0.50;;;;;;;4.37;100.00;91252.78;2092753;28;20119;-82
2024/03/29 03:56:49;;;;;;;0.88;0.70;;;;;;;4.54;100.00;91256.09;2086869;28;20115;-84
2024/03/29 03:57:50;;;;;;;0.57;0.50;;;;;;;4.52;100.00;91266.31;2076724;28;20040;-85
2024/03/29 03:58:51;;;;;;;0.50;0.50;;;;;;;4.58;100.00;91246.13;2086467;28;20167;-81
2024/03/29 03:59:52;;;;;;;0.40;0.40;;;;;;;4.44;100.00;91262.44;2085344;28;20115;-82
2024/03/29 04:00:53;;;;;;;0.82;0.55;;;;;;;4.45;100.00;91262.00;2094589;28;20028;-82
2024/03/29 04:01:54;;;;;;;0.50;0.50;;;;;;;4.58;100.00;91267.31;2102369;28;20052;-83
2024/03/29 04:02:56;;;;;;;0.50;0.50;;;;;;;4.64;100.00;91270.16;2098178;28;20027;-82
2024/03/29 04:03:57;;;;;;;0.82;0.60;;;;;;;4.61;100.00;91255.13;2102367;28;20492;-84
2024/03/29 04:04:58;;;;;;;0.60;0.60;;;;;;;4.71;100.00;91257.47;2085223;28;20029;-81
2024/03/29 04:06:03;;;;;;;2.65;0.55;;;;;;;4.75;100.00;91252.81;2086242;28;20017;-83
2024/03/29 04:07:04;;;;;;;0.40;0.40;;;;;;;4.78;100.00;91253.84;2093421;28;20052;-85
2024/03/29 04:08:05;;;;;;;0.90;0.50;;;;;;;4.65;100.00;91258.41;2086744;28;20029;-82
2024/03/29 04:09:07;;;;;;;1.48;0.70;;;;;;;4.64;100.00;91270.16;2086608;28;20751;-82
2024/03/29 04:10:08;;;;;;;0.93;0.68;;;;;;;4.69;100.00;91262.41;2081284;28;20413;-81
2024/03/29 04:11:09;;;;;;;0.80;0.60;;;;;;;4.55;100.00;91268.13;2089791;28;20481;-82
2024/03/29 04:12:10;;;;;;;0.90;0.55;;;;;;;4.26;100.00;91265.59;2100492;28;20025;-83
2024/03/29 04:13:11;;;;;;;0.50;0.50;;;;;;;4.46;100.00;91257.44;2092060;28;20028;-82
2024/03/29 04:14:12;;;;;;;1.63;0.60;;;;;;;4.53;100.00;91249.31;2090079;28;20075;-81
2024/03/29 04:15:13;;;;;;;0.60;0.60;;;;;;;4.32;100.00;91244.63;2101614;28;20050;-83
2024/03/29 04:16:14;;;;;;;0.80;0.60;;;;;;;4.60;100.00;91238.50;2091793;28;20025;-83
2024/03/29 04:17:15;;;;;;;0.43;0.43;;;;;;;4.54;100.00;91234.91;2081454;28;20478;-84
2024/03/29 04:18:16;;;;;;;0.40;0.40;;;;;;;4.51;100.00;91231.19;2100043;28;20127;-82
2024/03/29 04:19:17;;;;;;;0.70;0.60;;;;;;;4.53;100.00;91220.94;2089994;28;20033;-83
2024/03/29 04:20:18;;;;;;;0.60;0.60;;;;;;;4.49;100.00;91207.09;2084535;28;20028;-82
2024/03/29 04:21:21;;;;;;;0.47;0.47;;;;;;;4.71;100.00;91207.19;2099015;28;20016;-79
2024/03/29 04:22:23;;;;;;;1.63;0.60;;;;;;;4.71;100.00;91219.66;2081912;28;20138;-81
2024/03/29 04:23:24;;;;;;;0.55;0.55;;;;;;;4.99;100.00;91247.16;2085178;28;20028;-82
2024/03/29 04:24:25;;;;;;;0.50;0.50;;;;;;;4.97;100.00;91241.56;2073776;28;20076;-84
2024/03/29 04:25:25;;;;;;;1.20;0.98;;;;;;;5.11;100.00;91240.38;2089886;28;20032;-83
2024/03/29 04:26:26;;;;;;;1.75;0.50;;;;;;;5.04;100.00;91234.13;2097786;28;20024;-83
2024/03/29 04:27:27;;;;;;;0.40;0.40;;;;;;;5.03;100.00;91226.63;2097801;28;20063;-84
2024/03/29 04:28:28;;;;;;;0.50;0.50;;;;;;;4.94;100.00;91214.03;2081325;28;20124;-82
2024/03/29 04:29:30;;;;;;;0.40;0.40;;;;;;;4.98;100.00;91222.59;2073749;28;20029;-82
2024/03/29 04:30:57;;;;;;;0.88;0.50;;;;;;;4.90;100.00;91212.66;2085640;28;20041;-81
2024/03/29 04:31:57;;;;;;;1.10;0.40;;;;;;;4.81;100.00;91215.94;2103561;28;20087;-81
2024/03/29 04:32:58;;;;;;;1.40;0.60;;;;;;;4.91;100.00;91220.16;2101822;28;20081;-82
2024/03/29 04:34:00;;;;;;;0.82;0.60;;;;;;;4.98;100.00;91224.50;2089399;28;20024;-82
2024/03/29 04:35:01;;;;;;;0.65;0.55;;;;;;;5.06;100.00;91231.06;2081334;28;20060;-82
2024/03/29 04:36:04;;;;;;;0.63;0.60;;;;;;;5.12;100.00;91232.00;2085862;28;20109;-81
2024/03/29 04:37:05;;;;;;;0.98;0.55;;;;;;;5.07;100.00;91237.09;2093992;28;20020;-82
2024/03/29 04:38:06;;;;;;;0.60;0.60;;;;;;;5.08;100.00;91244.59;2089827;28;20485;-82
2024/03/29 04:39:07;;;;;;;0.60;0.60;;;;;;;4.98;100.00;91246.44;2094979;28;20508;-83
2024/03/29 04:42:04;;;;;;;0.93;0.40;;;;;;;4.94;100.00;91226.53;2097894;28;20021;-83
2024/03/29 04:43:05;;;;;;;0.50;0.50;;;;;;;4.94;100.00;91243.16;2097601;28;20024;-82
2024/03/29 04:44:07;;;;;;;1.25;0.60;;;;;;;4.89;100.00;91248.97;2086516;28;20512;-82
2024/03/29 04:45:09;;;;;;;0.68;0.68;;;;;;;4.86;100.00;91233.94;2093822;28;20044;-82
2024/03/29 04:46:11;;;;;;;0.47;0.47;;;;;;;5.15;100.00;91236.44;2092108;28;20047;-81
2024/03/29 04:47:13;;;;;;;0.50;0.50;;;;;;;5.15;100.00;91244.38;2084733;28;20034;-81
2024/03/29 04:48:16;;;;;;;0.40;0.40;;;;;;;5.16;100.00;91242.47;2099527;28;20428;-82
2024/03/29 04:49:51;;;;;;;0.50;0.50;;;;;;;5.09;100.00;91238.13;2101477;28;20116;-84
2024/03/29 04:50:52;;;;;;;0.40;0.40;;;;;;;5.15;100.00;91241.00;2105339;28;20024;-81
2024/03/29 04:53:50;;;;;;;0.50;0.50;;;;;;;4.96;100.00;91248.78;2100832;28;20020;-81
2024/03/29 04:54:57;;;;;;;1.30;0.52;;;;;;;5.04;100.00;91247.34;2102467;28;20028;-81
2024/03/29 04:56:32;;;;;;;2.85;0.65;;;;;;;4.86;100.00;91249.09;2090971;28;20020;-80
2024/03/29 04:57:33;;;;;;;0.50;0.50;;;;;;;4.66;100.00;91244.03;2093146;28;20024;-81
2024/03/29 04:58:34;;;;;;;0.65;0.45;;;;;;;4.73;100.00;91247.19;2082265;28;20021;-82
2024/03/29 04:59:35;;;;;;;0.75;0.60;;;;;;;4.92;100.00;91255.34;2096340;28;20116;-82
2024/03/29 05:00:42;;;;;;;0.60;0.50;;;;;;;4.97;100.00;91247.59;2073062;28;20109;-82
2024/03/29 05:01:50;;;;;;;0.50;0.50;;;;;;;4.88;100.00;91250.16;2092340;28;20392;-83
2024/03/29 05:02:51;;;;;;;0.85;0.80;;;;;;;4.71;100.00;91243.50;2090518;28;20442;-82
2024/03/29 05:03:51;;;;;;;0.80;0.63;;;;;;;4.45;100.00;91251.41;2097713;28;20017;-82
2024/03/29 05:05:41;;;;;;;0.45;0.45;;;;;;;4.68;100.00;91249.63;2093394;28;20032;-82
2024/03/29 05:06:41;;;;;;;0.80;0.80;;;;;;;4.84;100.00;91246.88;2093693;28;20031;-81
2024/03/29 05:07:42;;;;;;;0.77;0.60;;;;;;;4.77;100.00;91249.72;2083510;28;20064;-81
2024/03/29 05:08:43;;;;;;;0.50;0.50;;;;;;;4.61;100.00;91255.13;2081163;28;20485;-83
2024/03/29 05:09:44;;;;;;;1.00;0.68;;;;;;;4.61;100.00;91249.81;2082900;28;20080;-82
2024/03/29 05:10:46;;;;;;;0.73;0.60;;;;;;;4.76;100.00;91258.84;2100010;28;20025;-81
2024/03/29 05:11:58;;;;;;;0.50;0.50;;;;;;;4.74;100.00;91263.78;2092329;28;20092;-83
2024/03/29 05:13:00;;;;;;;0.52;0.50;;;;;;;4.85;100.00;91251.00;2084037;28;20327;-80
2024/03/29 05:14:03;;;;;;;0.52;0.52;;;;;;;4.70;100.00;91253.34;2081545;28;20497;-81
2024/03/29 05:15:05;;;;;;;0.55;0.55;;;;;;;4.67;100.00;91254.19;2090939;28;20397;-82
2024/03/29 05:16:06;;;;;;;0.40;0.40;;;;;;;4.47;100.00;91259.66;2091480;28;20059;-85
2024/03/29 05:17:07;;;;;;;0.63;0.50;;;;;;;4.67;100.00;91258.72;2082269;28;20024;-81
2024/03/29 05:18:08;;;;;;;0.52;0.52;;;;;;;4.58;100.00;91261.28;2103180;28;20427;-81
2024/03/29 05:19:09;;;;;;;0.47;0.40;;;;;;;4.47;100.00;91264.94;2103107;28;20044;-82
2024/03/29 05:20:10;;;;;;;0.75;0.68;;;;;;;4.62;100.00;91267.19;2089066;28;20028;-81
2024/03/29 05:21:11;;;;;;;0.52;0.47;;;;;;;4.52;100.00;91267.09;2079785;28;20421;-83
2024/03/29 05:22:12;;;;;;;0.93;0.57;;;;;;;4.72;100.00;91274.06;2097539;28;20032;-81
2024/03/29 05:23:14;;;;;;;0.70;0.70;;;;;;;4.52;100.00;91276.91;2106613;28;20017;-83
2024/03/29 05:24:15;;;;;;;0.50;0.50;;;;;;;4.49;100.00;91270.56;2099547;28;20031;-81
2024/03/29 05:28:07;;;;;;;1.77;0.70;;;;;;;4.82;100.00;91275.66;2096653;28;20115;-83
2024/03/29 05:29:08;;;;;;;0.95;0.60;;;;;;;4.93;100.00;91278.00;2092333;28;20079;-82
2024/03/29 05:32:59;;;;;;;0.90;0.60;;;;;;;5.03;100.00;91267.06;2099737;28;20109;-82
2024/03/29 05:34:00;;;;;;;1.15;0.63;;;;;;;4.66;100.00;91276.53;2082070;28;20032;-82
2024/03/29 05:35:01;;;;;;;0.60;0.60;;;;;;;4.84;100.00;91259.38;2089017;28;20036;-82
2024/03/29 05:36:04;;;;;;;0.60;0.60;;;;;;;4.91;100.00;91267.81;2077601;28;20036;-83
2024/03/29 05:37:07;;;;;;;0.85;0.63;;;;;;;4.93;100.00;91270.06;2076396;28;20483;-82
2024/03/29 05:38:08;;;;;;;0.70;0.70;;;;;;;4.98;100.00;91269.50;2081111;28;20029;-82
2024/03/29 05:41:53;;;;;;;1.08;0.70;;;;;;;4.84;100.00;91277.91;2088750;28;20025;-82
2024/03/29 05:43:18;;;;;;;0.65;0.60;;;;;;;5.18;100.00;91285.16;2088877;28;20033;-81
2024/03/29 05:44:20;;;;;;;0.60;0.60;;;;;;;5.22;100.00;91280.47;2088278;28;20052;-81
2024/03/29 05:45:29;;;;;;;0.70;0.70;;;;;;;5.29;100.00;91288.97;2093718;28;20021;-81
2024/03/29 05:46:31;;;;;;;1.02;0.93;;;;;;;5.11;100.00;91291.41;2082436;28;20444;-82
2024/03/29 05:47:32;;;;;;;1.33;0.85;;;;;;;5.10;100.00;91295.25;2080707;28;20029;-82
2024/03/29 05:48:33;;;;;;;0.70;0.70;;;;;;;4.98;100.00;91288.78;2091118;28;20485;-81
2024/03/29 05:49:34;;;;;;;0.70;0.70;;;;;;;5.01;100.00;91285.28;2089509;28;20478;-80
2024/03/29 05:50:35;;;;;;;0.63;0.63;;;;;;;5.13;100.00;91286.44;2091025;28;20020;-82
2024/03/29 05:51:36;;;;;;;0.63;0.60;;;;;;;5.36;100.00;91282.72;2095916;28;20539;-82
2024/03/29 05:52:37;;;;;;;0.65;0.60;;;;;;;5.47;100.00;91285.00;2074451;28;20034;-81
2024/03/29 05:53:38;;;;;;;0.90;0.80;;;;;;;5.36;100.00;91287.25;2079269;28;20025;-82
2024/03/29 05:54:45;;;;;;;0.85;0.77;;;;;;;5.46;100.00;91283.53;2074265;28;20537;-82
2024/03/29 05:55:46;;;;;;;0.90;0.70;;;;;;;5.50;100.00;91286.81;2094425;28;20311;-82
2024/03/29 05:56:47;;;;;;;0.60;0.60;;;;;;;5.38;100.00;91283.00;2083574;28;20128;-82
2024/03/29 05:57:48;;;;;;;1.88;0.65;;;;;;;5.30;100.00;91285.13;2069956;28;20025;-81
2024/03/29 05:58:52;;;;;;;0.80;0.63;;;;;;;5.51;100.00;91275.75;2083989;28;20381;-82
2024/03/29 05:59:53;;;;;;;0.60;0.60;;;;;;;5.69;100.00;91275.19;2092987;28;20488;-81
2024/03/29 06:00:54;;;;;;;1.00;0.68;;;;;;;5.42;100.00;91278.34;2084951;28;20029;-81
2024/03/29 06:01:55;;;;;;;1.00;0.65;;;;;;;5.61;100.00;91268.63;2084669;28;20021;-80
2024/03/29 06:02:57;;;;;;;2.53;0.80;;;;;;;5.66;100.00;91270.00;2080741;28;20107;-81
2024/03/29 06:04:04;;;;;;;1.38;0.75;;;;;;;5.67;100.00;91256.31;2072865;28;20028;-81
2024/03/29 06:05:05;;;;;;;1.05;1.05;;;;;;;5.59;100.00;91254.34;2073888;28;20065;-82
2024/03/29 06:06:07;;;;;;;1.88;0.60;;;;;;;5.68;100.00;91259.72;2084717;28;20466;-81
2024/03/29 06:07:08;;;;;;;2.70;2.50;;;;;;;5.70;100.00;91252.78;2075627;28;20513;-81
2024/03/29 06:08:09;;;;;;;2.05;1.20;;;;;;;5.74;100.00;91258.72;2083139;28;20093;-81
2024/03/29 06:09:13;;;;;;;1.30;1.20;;;;;;;5.91;100.00;91259.28;2093195;28;20126;-82
2024/03/29 06:10:14;;;;;;;0.80;0.70;;;;;;;5.82;100.00;91265.25;2090001;28;20034;-81
2024/03/29 06:11:15;;;;;;;0.80;0.80;;;;;;;5.85;100.00;91258.38;2091523;28;20099;-80
2024/03/29 06:17:23;;;;;;;1.40;0.75;;;;;;;6.40;100.00;91240.16;2095802;28;20017;-81
2024/03/29 06:18:24;;;;;;;0.60;0.57;;;;;;;6.40;100.00;91234.13;2096741;28;20103;-80
2024/03/29 06:19:26;;;;;;;1.20;1.10;;;;;;;6.41;100.00;91225.75;2081839;28;20021;-81
2024/03/29 06:20:29;;;;;;;1.17;0.85;;;;;;;6.30;100.00;91231.41;2081831;28;20036;-83
2024/03/29 06:24:24;;;;;;;1.08;0.90;;;;;;;6.39;100.00;91214.06;2067873;28;20037;-82
2024/03/29 06:25:25;;;;;;;0.93;0.88;;;;;;;6.21;100.00;91201.44;2071885;28;20054;-82
2024/03/29 06:26:26;;;;;;;1.80;1.70;;;;;;;6.12;100.00;91204.78;2063924;28;20033;-81
2024/03/29 06:27:27;;;;;;;1.80;1.70;;;;;;;6.27;100.00;91205.00;2078183;28;20041;-82
2024/03/29 06:28:28;;;;;;;1.50;1.40;;;;;;;6.44;100.00;91206.28;2091664;28;20612;-81
2024/03/29 06:29:29;;;;;;;1.33;1.20;;;;;;;6.48;100.00;91203.50;2106000;28;20028;-82
2024/03/29 06:30:30;;;;;;;1.60;1.40;;;;;;;6.50;100.00;91215.16;2097004;28;20031;-81
2024/03/29 06:31:31;;;;;;;1.60;1.50;;;;;;;6.50;100.00;91215.16;2096451;28;20469;-80
2024/03/29 06:32:32;;;;;;;2.03;1.40;;;;;;;6.21;100.00;91220.03;2102065;28;20059;-81
2024/03/29 06:33:33;;;;;;;1.20;1.10;;;;;;;6.25;100.00;91218.72;2097047;28;20082;-79